sensor_id;sensor_type;location;lat;lon;timestamp;P1;durP1;ratioP1;P2;durP2;ratioP2
74632;SDS011;63139;52.018;8.552;2022-09-01T00:00:33;1.67;;;1.47;;
74632;SDS011;63139;52.018;8.552;2022-09-01T00:03:00;2.20;;;1.33;;
74632;SDS011;63139;52.018;8.552;2022-09-01T00:07:51;1.40;;;1.30;;
74632;SDS011;63139;52.018;8.552;2022-09-01T00:10:16;1.43;;;1.30;;
74632;SDS011;63139;52.018;8.552;2022-09-01T00:12:41;1.23;;;1.13;;
74632;SDS011;63139;52.018;8.552;2022-09-01T00:15:08;2.37;;;1.30;;
74632;SDS011;63139;52.018;8.552;2022-09-01T00:17:34;1.40;;;1.30;;
74632;SDS011;63139;52.018;8.552;2022-09-01T00:20:01;2.37;;;1.40;;
74632;SDS011;63139;52.018;8.552;2022-09-01T00:22:27;1.40;;;1.20;;
74632;SDS011;63139;52.018;8.552;2022-09-01T00:24:53;1.77;;;1.33;;
74632;SDS011;63139;52.018;8.552;2022-09-01T00:27:18;1.57;;;1.23;;
74632;SDS011;63139;52.018;8.552;2022-09-01T00:29:44;1.60;;;1.50;;
74632;SDS011;63139;52.018;8.552;2022-09-01T00:32:09;3.50;;;1.40;;
74632;SDS011;63139;52.018;8.552;2022-09-01T00:34:35;1.98;;;1.55;;
74632;SDS011;63139;52.018;8.552;2022-09-01T00:37:02;1.70;;;1.40;;
74632;SDS011;63139;52.018;8.552;2022-09-01T00:39:28;2.45;;;1.20;;
74632;SDS011;63139;52.018;8.552;2022-09-01T00:41:53;2.20;;;1.70;;
74632;SDS011;63139;52.018;8.552;2022-09-01T00:44:19;2.53;;;1.50;;
74632;SDS011;63139;52.018;8.552;2022-09-01T00:51:38;3.92;;;1.30;;
74632;SDS011;63139;52.018;8.552;2022-09-01T00:54:06;3.22;;;1.83;;
74632;SDS011;63139;52.018;8.552;2022-09-01T00:56:33;1.63;;;1.50;;
74632;SDS011;63139;52.018;8.552;2022-09-01T00:58:59;3.22;;;1.90;;
74632;SDS011;63139;52.018;8.552;2022-09-01T01:01:25;3.78;;;1.48;;
74632;SDS011;63139;52.018;8.552;2022-09-01T01:03:51;2.40;;;1.57;;
74632;SDS011;63139;52.018;8.552;2022-09-01T01:06:16;2.57;;;1.60;;
74632;SDS011;63139;52.018;8.552;2022-09-01T01:08:43;2.42;;;1.85;;
74632;SDS011;63139;52.018;8.552;2022-09-01T01:11:12;2.65;;;1.75;;
74632;SDS011;63139;52.018;8.552;2022-09-01T01:13:46;4.30;;;2.13;;
74632;SDS011;63139;52.018;8.552;2022-09-01T01:16:13;1.50;;;1.40;;
74632;SDS011;63139;52.018;8.552;2022-09-01T01:18:39;3.10;;;1.80;;
74632;SDS011;63139;52.018;8.552;2022-09-01T01:21:06;2.73;;;1.73;;
74632;SDS011;63139;52.018;8.552;2022-09-01T01:23:35;1.70;;;1.50;;
74632;SDS011;63139;52.018;8.552;2022-09-01T01:26:05;1.85;;;1.65;;
74632;SDS011;63139;52.018;8.552;2022-09-01T01:28:33;2.75;;;1.80;;
74632;SDS011;63139;52.018;8.552;2022-09-01T01:31:00;3.03;;;1.40;;
74632;SDS011;63139;52.018;8.552;2022-09-01T01:33:30;2.25;;;1.65;;
74632;SDS011;63139;52.018;8.552;2022-09-01T01:35:57;1.38;;;1.23;;
74632;SDS011;63139;52.018;8.552;2022-09-01T01:38:23;2.47;;;1.60;;
74632;SDS011;63139;52.018;8.552;2022-09-01T01:43:16;2.40;;;1.20;;
74632;SDS011;63139;52.018;8.552;2022-09-01T01:48:07;1.77;;;1.40;;
74632;SDS011;63139;52.018;8.552;2022-09-01T01:50:32;1.30;;;1.20;;
74632;SDS011;63139;52.018;8.552;2022-09-01T01:52:58;1.77;;;1.20;;
74632;SDS011;63139;52.018;8.552;2022-09-01T01:55:24;1.40;;;1.23;;
74632;SDS011;63139;52.018;8.552;2022-09-01T01:57:50;2.23;;;1.33;;
74632;SDS011;63139;52.018;8.552;2022-09-01T02:00:18;1.50;;;1.40;;
74632;SDS011;63139;52.018;8.552;2022-09-01T02:02:45;1.80;;;1.30;;
74632;SDS011;63139;52.018;8.552;2022-09-01T02:05:11;2.35;;;2.05;;
74632;SDS011;63139;52.018;8.552;2022-09-01T02:07:37;2.07;;;1.53;;
74632;SDS011;63139;52.018;8.552;2022-09-01T02:10:03;2.77;;;1.50;;
74632;SDS011;63139;52.018;8.552;2022-09-01T02:12:29;2.22;;;1.73;;
74632;SDS011;63139;52.018;8.552;2022-09-01T02:14:54;5.27;;;2.10;;
74632;SDS011;63139;52.018;8.552;2022-09-01T02:17:21;3.13;;;2.17;;
74632;SDS011;63139;52.018;8.552;2022-09-01T02:19:47;1.98;;;1.67;;
74632;SDS011;63139;52.018;8.552;2022-09-01T02:22:12;2.83;;;1.77;;
74632;SDS011;63139;52.018;8.552;2022-09-01T02:24:38;2.27;;;1.80;;
74632;SDS011;63139;52.018;8.552;2022-09-01T02:27:03;2.33;;;1.63;;
74632;SDS011;63139;52.018;8.552;2022-09-01T02:29:29;1.97;;;1.60;;
74632;SDS011;63139;52.018;8.552;2022-09-01T02:31:55;2.03;;;1.60;;
74632;SDS011;63139;52.018;8.552;2022-09-01T02:34:22;1.60;;;1.27;;
74632;SDS011;63139;52.018;8.552;2022-09-01T02:36:49;2.42;;;1.38;;
74632;SDS011;63139;52.018;8.552;2022-09-01T02:39:16;2.17;;;1.58;;
74632;SDS011;63139;52.018;8.552;2022-09-01T02:41:43;1.73;;;1.45;;
74632;SDS011;63139;52.018;8.552;2022-09-01T02:44:09;1.97;;;1.40;;
74632;SDS011;63139;52.018;8.552;2022-09-01T02:46:35;3.13;;;2.10;;
74632;SDS011;63139;52.018;8.552;2022-09-01T02:49:00;1.60;;;1.50;;
74632;SDS011;63139;52.018;8.552;2022-09-01T02:51:27;1.70;;;1.40;;
74632;SDS011;63139;52.018;8.552;2022-09-01T02:56:18;1.40;;;1.20;;
74632;SDS011;63139;52.018;8.552;2022-09-01T03:01:10;1.87;;;1.30;;
74632;SDS011;63139;52.018;8.552;2022-09-01T03:03:37;1.48;;;1.33;;
74632;SDS011;63139;52.018;8.552;2022-09-01T03:06:02;2.37;;;1.40;;
74632;SDS011;63139;52.018;8.552;2022-09-01T03:08:29;1.40;;;1.30;;
74632;SDS011;63139;52.018;8.552;2022-09-01T03:10:55;2.33;;;1.67;;
74632;SDS011;63139;52.018;8.552;2022-09-01T03:13:21;1.30;;;1.20;;
74632;SDS011;63139;52.018;8.552;2022-09-01T03:15:47;1.42;;;1.30;;
74632;SDS011;63139;52.018;8.552;2022-09-01T03:18:13;1.33;;;1.23;;
74632;SDS011;63139;52.018;8.552;2022-09-01T03:20:39;1.63;;;1.30;;
74632;SDS011;63139;52.018;8.552;2022-09-01T03:23:07;2.65;;;1.23;;
74632;SDS011;63139;52.018;8.552;2022-09-01T03:25:34;1.67;;;1.20;;
74632;SDS011;63139;52.018;8.552;2022-09-01T03:28:00;2.42;;;1.30;;
74632;SDS011;63139;52.018;8.552;2022-09-01T03:30:26;1.70;;;1.30;;
74632;SDS011;63139;52.018;8.552;2022-09-01T03:32:52;2.05;;;1.58;;
74632;SDS011;63139;52.018;8.552;2022-09-01T03:35:18;2.67;;;1.70;;
74632;SDS011;63139;52.018;8.552;2022-09-01T03:37:43;1.60;;;1.50;;
74632;SDS011;63139;52.018;8.552;2022-09-01T03:40:10;2.63;;;1.40;;
74632;SDS011;63139;52.018;8.552;2022-09-01T03:42:38;1.80;;;1.40;;
74632;SDS011;63139;52.018;8.552;2022-09-01T03:47:29;5.40;;;1.25;;
74632;SDS011;63139;52.018;8.552;2022-09-01T03:49:54;6.03;;;1.70;;
74632;SDS011;63139;52.018;8.552;2022-09-01T03:52:20;2.10;;;1.57;;
74632;SDS011;63139;52.018;8.552;2022-09-01T03:54:45;2.37;;;1.87;;
74632;SDS011;63139;52.018;8.552;2022-09-01T03:57:11;1.27;;;1.17;;
74632;SDS011;63139;52.018;8.552;2022-09-01T03:59:38;1.60;;;1.20;;
74632;SDS011;63139;52.018;8.552;2022-09-01T04:02:03;2.10;;;1.67;;
74632;SDS011;63139;52.018;8.552;2022-09-01T04:04:29;3.07;;;1.60;;
74632;SDS011;63139;52.018;8.552;2022-09-01T04:06:54;2.63;;;1.50;;
74632;SDS011;63139;52.018;8.552;2022-09-01T04:09:19;3.90;;;1.70;;
74632;SDS011;63139;52.018;8.552;2022-09-01T04:11:45;2.33;;;1.87;;
74632;SDS011;63139;52.018;8.552;2022-09-01T04:14:10;1.60;;;1.40;;
74632;SDS011;63139;52.018;8.552;2022-09-01T04:16:38;1.50;;;1.27;;
74632;SDS011;63139;52.018;8.552;2022-09-01T04:19:03;2.47;;;1.60;;
74632;SDS011;63139;52.018;8.552;2022-09-01T04:21:28;1.90;;;1.60;;
74632;SDS011;63139;52.018;8.552;2022-09-01T04:23:54;2.10;;;1.57;;
74632;SDS011;63139;52.018;8.552;2022-09-01T04:26:19;2.97;;;1.60;;
74632;SDS011;63139;52.018;8.552;2022-09-01T04:28:45;2.80;;;1.97;;
74632;SDS011;63139;52.018;8.552;2022-09-01T04:31:13;3.55;;;1.88;;
74632;SDS011;63139;52.018;8.552;2022-09-01T04:33:41;2.63;;;1.50;;
74632;SDS011;63139;52.018;8.552;2022-09-01T04:36:12;3.33;;;2.17;;
74632;SDS011;63139;52.018;8.552;2022-09-01T04:38:39;3.42;;;1.90;;
74632;SDS011;63139;52.018;8.552;2022-09-01T04:41:04;1.83;;;1.60;;
74632;SDS011;63139;52.018;8.552;2022-09-01T04:43:30;1.73;;;1.63;;
74632;SDS011;63139;52.018;8.552;2022-09-01T04:45:56;2.43;;;1.20;;
74632;SDS011;63139;52.018;8.552;2022-09-01T04:48:21;1.70;;;1.17;;
74632;SDS011;63139;52.018;8.552;2022-09-01T04:50:48;1.70;;;1.60;;
74632;SDS011;63139;52.018;8.552;2022-09-01T04:55:40;2.05;;;1.70;;
74632;SDS011;63139;52.018;8.552;2022-09-01T04:58:05;2.63;;;1.50;;
74632;SDS011;63139;52.018;8.552;2022-09-01T05:00:31;2.67;;;1.93;;
74632;SDS011;63139;52.018;8.552;2022-09-01T05:02:57;6.03;;;2.97;;
74632;SDS011;63139;52.018;8.552;2022-09-01T05:05:24;1.67;;;1.50;;
74632;SDS011;63139;52.018;8.552;2022-09-01T05:07:51;2.20;;;1.60;;
74632;SDS011;63139;52.018;8.552;2022-09-01T05:12:42;2.33;;;1.60;;
74632;SDS011;63139;52.018;8.552;2022-09-01T05:15:08;4.93;;;1.20;;
74632;SDS011;63139;52.018;8.552;2022-09-01T05:17:33;2.90;;;2.23;;
74632;SDS011;63139;52.018;8.552;2022-09-01T05:19:59;1.97;;;1.67;;
74632;SDS011;63139;52.018;8.552;2022-09-01T05:22:24;2.03;;;1.70;;
74632;SDS011;63139;52.018;8.552;2022-09-01T05:24:51;2.37;;;1.97;;
74632;SDS011;63139;52.018;8.552;2022-09-01T05:27:16;3.22;;;1.88;;
74632;SDS011;63139;52.018;8.552;2022-09-01T05:29:42;1.90;;;1.70;;
74632;SDS011;63139;52.018;8.552;2022-09-01T05:32:08;3.97;;;1.60;;
74632;SDS011;63139;52.018;8.552;2022-09-01T05:34:33;6.60;;;1.67;;
74632;SDS011;63139;52.018;8.552;2022-09-01T05:36:59;2.00;;;1.50;;
74632;SDS011;63139;52.018;8.552;2022-09-01T05:39:24;2.87;;;1.70;;
74632;SDS011;63139;52.018;8.552;2022-09-01T05:41:52;3.20;;;1.83;;
74632;SDS011;63139;52.018;8.552;2022-09-01T05:44:17;2.40;;;1.98;;
74632;SDS011;63139;52.018;8.552;2022-09-01T05:46:43;2.30;;;2.10;;
74632;SDS011;63139;52.018;8.552;2022-09-01T05:49:09;2.43;;;2.07;;
74632;SDS011;63139;52.018;8.552;2022-09-01T05:51:35;6.82;;;2.80;;
74632;SDS011;63139;52.018;8.552;2022-09-01T05:54:00;4.00;;;2.07;;
74632;SDS011;63139;52.018;8.552;2022-09-01T05:56:27;2.60;;;1.90;;
74632;SDS011;63139;52.018;8.552;2022-09-01T05:58:54;4.35;;;2.00;;
74632;SDS011;63139;52.018;8.552;2022-09-01T06:01:21;5.38;;;2.45;;
74632;SDS011;63139;52.018;8.552;2022-09-01T06:03:48;2.85;;;2.25;;
74632;SDS011;63139;52.018;8.552;2022-09-01T06:06:13;3.30;;;2.00;;
74632;SDS011;63139;52.018;8.552;2022-09-01T06:08:39;2.70;;;2.20;;
74632;SDS011;63139;52.018;8.552;2022-09-01T06:11:04;3.30;;;1.80;;
74632;SDS011;63139;52.018;8.552;2022-09-01T06:13:30;4.50;;;1.90;;
74632;SDS011;63139;52.018;8.552;2022-09-01T06:15:57;3.53;;;2.33;;
74632;SDS011;63139;52.018;8.552;2022-09-01T06:20:47;3.30;;;1.90;;
74632;SDS011;63139;52.018;8.552;2022-09-01T06:23:13;3.27;;;2.20;;
74632;SDS011;63139;52.018;8.552;2022-09-01T06:25:39;3.35;;;2.20;;
74632;SDS011;63139;52.018;8.552;2022-09-01T06:28:05;4.77;;;2.10;;
74632;SDS011;63139;52.018;8.552;2022-09-01T06:30:30;2.90;;;2.40;;
74632;SDS011;63139;52.018;8.552;2022-09-01T06:32:57;2.97;;;2.07;;
74632;SDS011;63139;52.018;8.552;2022-09-01T06:37:48;3.00;;;2.10;;
74632;SDS011;63139;52.018;8.552;2022-09-01T06:40:14;4.27;;;2.27;;
74632;SDS011;63139;52.018;8.552;2022-09-01T06:42:40;1.90;;;1.70;;
74632;SDS011;63139;52.018;8.552;2022-09-01T06:45:06;2.70;;;2.10;;
74632;SDS011;63139;52.018;8.552;2022-09-01T06:47:32;2.33;;;1.63;;
74632;SDS011;63139;52.018;8.552;2022-09-01T06:49:59;1.77;;;1.53;;
74632;SDS011;63139;52.018;8.552;2022-09-01T06:54:49;2.53;;;1.40;;
74632;SDS011;63139;52.018;8.552;2022-09-01T06:57:15;4.43;;;1.73;;
74632;SDS011;63139;52.018;8.552;2022-09-01T06:59:40;5.40;;;1.90;;
74632;SDS011;63139;52.018;8.552;2022-09-01T07:02:06;1.50;;;1.40;;
74632;SDS011;63139;52.018;8.552;2022-09-01T07:04:31;5.97;;;2.00;;
74632;SDS011;63139;52.018;8.552;2022-09-01T07:06:58;2.33;;;1.80;;
74632;SDS011;63139;52.018;8.552;2022-09-01T07:11:49;2.63;;;1.53;;
74632;SDS011;63139;52.018;8.552;2022-09-01T07:14:14;3.60;;;1.53;;
74632;SDS011;63139;52.018;8.552;2022-09-01T07:16:40;3.17;;;1.77;;
74632;SDS011;63139;52.018;8.552;2022-09-01T07:19:06;5.17;;;1.80;;
74632;SDS011;63139;52.018;8.552;2022-09-01T07:21:33;4.78;;;1.63;;
74632;SDS011;63139;52.018;8.552;2022-09-01T07:23:59;1.40;;;1.30;;
74632;SDS011;63139;52.018;8.552;2022-09-01T07:28:50;1.30;;;1.20;;
74632;SDS011;63139;52.018;8.552;2022-09-01T07:31:17;2.83;;;1.40;;
74632;SDS011;63139;52.018;8.552;2022-09-01T07:33:42;3.03;;;1.58;;
74632;SDS011;63139;52.018;8.552;2022-09-01T07:36:08;1.43;;;1.33;;
74632;SDS011;63139;52.018;8.552;2022-09-01T07:38:34;1.65;;;1.55;;
74632;SDS011;63139;52.018;8.552;2022-09-01T07:41:01;3.07;;;1.30;;
74632;SDS011;63139;52.018;8.552;2022-09-01T07:45:52;1.60;;;1.33;;
74632;SDS011;63139;52.018;8.552;2022-09-01T07:48:19;2.33;;;1.23;;
74632;SDS011;63139;52.018;8.552;2022-09-01T07:50:44;2.03;;;1.33;;
74632;SDS011;63139;52.018;8.552;2022-09-01T07:53:11;9.60;;;1.63;;
74632;SDS011;63139;52.018;8.552;2022-09-01T07:55:38;1.33;;;1.20;;
74632;SDS011;63139;52.018;8.552;2022-09-01T07:58:04;1.80;;;1.27;;
74632;SDS011;63139;52.018;8.552;2022-09-01T08:02:55;3.73;;;1.50;;
74632;SDS011;63139;52.018;8.552;2022-09-01T08:05:21;1.20;;;1.10;;
74632;SDS011;63139;52.018;8.552;2022-09-01T08:07:46;1.57;;;1.43;;
74632;SDS011;63139;52.018;8.552;2022-09-01T08:10:12;3.87;;;1.43;;
74632;SDS011;63139;52.018;8.552;2022-09-01T08:12:37;1.83;;;1.30;;
74632;SDS011;63139;52.018;8.552;2022-09-01T08:15:05;3.20;;;1.33;;
74632;SDS011;63139;52.018;8.552;2022-09-01T08:17:32;2.72;;;1.52;;
74632;SDS011;63139;52.018;8.552;2022-09-01T08:19:58;5.28;;;1.67;;
74632;SDS011;63139;52.018;8.552;2022-09-01T08:22:24;4.27;;;1.33;;
74632;SDS011;63139;52.018;8.552;2022-09-01T08:24:49;2.50;;;1.63;;
74632;SDS011;63139;52.018;8.552;2022-09-01T08:27:15;1.30;;;1.00;;
74632;SDS011;63139;52.018;8.552;2022-09-01T08:29:41;2.13;;;1.00;;
74632;SDS011;63139;52.018;8.552;2022-09-01T08:32:07;1.23;;;1.13;;
74632;SDS011;63139;52.018;8.552;2022-09-01T08:34:33;1.50;;;1.33;;
74632;SDS011;63139;52.018;8.552;2022-09-01T08:36:59;3.63;;;1.40;;
74632;SDS011;63139;52.018;8.552;2022-09-01T08:39:24;2.93;;;1.43;;
74632;SDS011;63139;52.018;8.552;2022-09-01T08:41:50;2.43;;;1.30;;
74632;SDS011;63139;52.018;8.552;2022-09-01T08:44:21;2.42;;;1.20;;
74632;SDS011;63139;52.018;8.552;2022-09-01T08:46:56;1.77;;;1.10;;
74632;SDS011;63139;52.018;8.552;2022-09-01T08:49:25;1.58;;;1.13;;
74632;SDS011;63139;52.018;8.552;2022-09-01T08:51:51;2.92;;;1.38;;
74632;SDS011;63139;52.018;8.552;2022-09-01T08:54:20;2.60;;;1.00;;
74632;SDS011;63139;52.018;8.552;2022-09-01T08:56:49;2.08;;;1.00;;
74632;SDS011;63139;52.018;8.552;2022-09-01T08:59:16;1.70;;;1.60;;
74632;SDS011;63139;52.018;8.552;2022-09-01T09:01:42;2.13;;;1.20;;
74632;SDS011;63139;52.018;8.552;2022-09-01T09:04:17;1.55;;;1.20;;
74632;SDS011;63139;52.018;8.552;2022-09-01T09:09:15;1.35;;;1.25;;
74632;SDS011;63139;52.018;8.552;2022-09-01T09:11:44;4.57;;;1.40;;
74632;SDS011;63139;52.018;8.552;2022-09-01T09:14:20;1.88;;;1.30;;
74632;SDS011;63139;52.018;8.552;2022-09-01T09:16:53;4.03;;;1.10;;
74632;SDS011;63139;52.018;8.552;2022-09-01T09:19:20;2.05;;;1.10;;
74632;SDS011;63139;52.018;8.552;2022-09-01T09:21:49;1.95;;;1.20;;
74632;SDS011;63139;52.018;8.552;2022-09-01T09:24:17;2.60;;;1.40;;
74632;SDS011;63139;52.018;8.552;2022-09-01T09:26:47;2.70;;;1.20;;
74632;SDS011;63139;52.018;8.552;2022-09-01T09:29:13;2.88;;;1.40;;
74632;SDS011;63139;52.018;8.552;2022-09-01T09:31:39;4.13;;;1.60;;
74632;SDS011;63139;52.018;8.552;2022-09-01T09:34:05;4.88;;;1.30;;
74632;SDS011;63139;52.018;8.552;2022-09-01T09:36:41;2.92;;;1.30;;
74632;SDS011;63139;52.018;8.552;2022-09-01T09:39:09;2.20;;;1.27;;
74632;SDS011;63139;52.018;8.552;2022-09-01T09:41:36;4.13;;;1.17;;
74632;SDS011;63139;52.018;8.552;2022-09-01T09:44:05;2.70;;;1.27;;
74632;SDS011;63139;52.018;8.552;2022-09-01T09:46:40;2.55;;;1.23;;
74632;SDS011;63139;52.018;8.552;2022-09-01T09:49:11;1.77;;;1.45;;
74632;SDS011;63139;52.018;8.552;2022-09-01T09:51:38;4.38;;;1.20;;
74632;SDS011;63139;52.018;8.552;2022-09-01T09:54:13;1.45;;;1.20;;
74632;SDS011;63139;52.018;8.552;2022-09-01T09:56:42;1.95;;;1.00;;
74632;SDS011;63139;52.018;8.552;2022-09-01T09:59:14;1.10;;;1.00;;
74632;SDS011;63139;52.018;8.552;2022-09-01T10:01:42;4.07;;;1.20;;
74632;SDS011;63139;52.018;8.552;2022-09-01T10:04:07;2.00;;;0.90;;
74632;SDS011;63139;52.018;8.552;2022-09-01T10:06:34;1.60;;;1.00;;
74632;SDS011;63139;52.018;8.552;2022-09-01T10:09:02;1.88;;;1.27;;
74632;SDS011;63139;52.018;8.552;2022-09-01T10:11:32;1.52;;;0.88;;
74632;SDS011;63139;52.018;8.552;2022-09-01T10:14:04;1.27;;;1.13;;
74632;SDS011;63139;52.018;8.552;2022-09-01T10:16:31;2.88;;;1.25;;
74632;SDS011;63139;52.018;8.552;2022-09-01T10:18:58;3.33;;;1.20;;
74632;SDS011;63139;52.018;8.552;2022-09-01T10:21:35;4.03;;;1.10;;
74632;SDS011;63139;52.018;8.552;2022-09-01T10:24:03;1.60;;;1.10;;
74632;SDS011;63139;52.018;8.552;2022-09-01T10:26:42;1.90;;;1.10;;
74632;SDS011;63139;52.018;8.552;2022-09-01T10:29:12;2.08;;;1.10;;
74632;SDS011;63139;52.018;8.552;2022-09-01T10:31:39;2.00;;;1.05;;
74632;SDS011;63139;52.018;8.552;2022-09-01T10:34:05;0.95;;;0.88;;
74632;SDS011;63139;52.018;8.552;2022-09-01T10:36:32;1.48;;;1.27;;
74632;SDS011;63139;52.018;8.552;2022-09-01T10:38:59;1.05;;;0.80;;
74632;SDS011;63139;52.018;8.552;2022-09-01T10:44:17;1.05;;;1.00;;
74632;SDS011;63139;52.018;8.552;2022-09-01T10:46:45;3.72;;;0.90;;
74632;SDS011;63139;52.018;8.552;2022-09-01T10:49:23;1.15;;;1.05;;
74632;SDS011;63139;52.018;8.552;2022-09-01T10:55:21;1.65;;;1.05;;
74632;SDS011;63139;52.018;8.552;2022-09-01T10:57:51;1.02;;;1.02;;
74632;SDS011;63139;52.018;8.552;2022-09-01T11:06:04;2.15;;;1.05;;
74632;SDS011;63139;52.018;8.552;2022-09-01T11:08:40;0.90;;;0.90;;
74632;SDS011;63139;52.018;8.552;2022-09-01T11:11:09;1.52;;;1.00;;
74632;SDS011;63139;52.018;8.552;2022-09-01T11:13:42;2.20;;;0.85;;
74632;SDS011;63139;52.018;8.552;2022-09-01T11:16:26;3.63;;;0.98;;
74632;SDS011;63139;52.018;8.552;2022-09-01T11:19:14;4.18;;;1.25;;
74632;SDS011;63139;52.018;8.552;2022-09-01T11:22:08;2.33;;;1.03;;
74632;SDS011;63139;52.018;8.552;2022-09-01T11:30:19;1.67;;;1.08;;
74632;SDS011;63139;52.018;8.552;2022-09-01T11:32:46;1.52;;;1.10;;
74632;SDS011;63139;52.018;8.552;2022-09-01T11:35:15;3.15;;;1.00;;
74632;SDS011;63139;52.018;8.552;2022-09-01T11:37:42;1.48;;;1.10;;
74632;SDS011;63139;52.018;8.552;2022-09-01T11:40:08;1.03;;;0.97;;
74632;SDS011;63139;52.018;8.552;2022-09-01T11:42:35;1.10;;;0.90;;
74632;SDS011;63139;52.018;8.552;2022-09-01T11:45:05;1.42;;;1.10;;
74632;SDS011;63139;52.018;8.552;2022-09-01T11:47:38;3.00;;;1.20;;
74632;SDS011;63139;52.018;8.552;2022-09-01T11:50:05;1.00;;;1.00;;
74632;SDS011;63139;52.018;8.552;2022-09-01T11:52:33;1.88;;;1.17;;
74632;SDS011;63139;52.018;8.552;2022-09-01T11:54:59;1.10;;;1.00;;
74632;SDS011;63139;52.018;8.552;2022-09-01T11:57:27;1.30;;;1.10;;
74632;SDS011;63139;52.018;8.552;2022-09-01T11:59:54;1.75;;;1.00;;
74632;SDS011;63139;52.018;8.552;2022-09-01T12:02:21;2.72;;;0.98;;
74632;SDS011;63139;52.018;8.552;2022-09-01T12:04:53;1.17;;;1.00;;
74632;SDS011;63139;52.018;8.552;2022-09-01T12:07:26;1.15;;;1.05;;
74632;SDS011;63139;52.018;8.552;2022-09-01T12:09:56;0.90;;;0.90;;
74632;SDS011;63139;52.018;8.552;2022-09-01T12:12:27;3.93;;;1.30;;
74632;SDS011;63139;52.018;8.552;2022-09-01T12:14:54;1.35;;;1.10;;
74632;SDS011;63139;52.018;8.552;2022-09-01T12:17:20;2.05;;;1.13;;
74632;SDS011;63139;52.018;8.552;2022-09-01T12:19:46;3.03;;;1.20;;
74632;SDS011;63139;52.018;8.552;2022-09-01T12:22:13;2.60;;;1.10;;
74632;SDS011;63139;52.018;8.552;2022-09-01T12:24:43;1.20;;;1.10;;
74632;SDS011;63139;52.018;8.552;2022-09-01T12:27:09;3.60;;;1.10;;
74632;SDS011;63139;52.018;8.552;2022-09-01T12:29:35;1.23;;;1.08;;
74632;SDS011;63139;52.018;8.552;2022-09-01T12:32:01;2.28;;;1.27;;
74632;SDS011;63139;52.018;8.552;2022-09-01T12:34:35;1.38;;;1.10;;
74632;SDS011;63139;52.018;8.552;2022-09-01T12:37:10;1.58;;;0.90;;
74632;SDS011;63139;52.018;8.552;2022-09-01T12:39:44;2.05;;;1.20;;
74632;SDS011;63139;52.018;8.552;2022-09-01T12:42:11;1.00;;;1.00;;
74632;SDS011;63139;52.018;8.552;2022-09-01T12:44:48;1.75;;;1.00;;
74632;SDS011;63139;52.018;8.552;2022-09-01T12:50:33;3.17;;;0.90;;
74632;SDS011;63139;52.018;8.552;2022-09-01T12:53:17;1.17;;;0.90;;
74632;SDS011;63139;52.018;8.552;2022-09-01T12:55:52;1.63;;;1.20;;
74632;SDS011;63139;52.018;8.552;2022-09-01T12:58:24;1.38;;;1.13;;
74632;SDS011;63139;52.018;8.552;2022-09-01T13:00:55;1.77;;;1.48;;
74632;SDS011;63139;52.018;8.552;2022-09-01T13:03:22;2.05;;;0.90;;
74632;SDS011;63139;52.018;8.552;2022-09-01T13:05:49;1.95;;;1.00;;
74632;SDS011;63139;52.018;8.552;2022-09-01T13:08:18;3.38;;;1.10;;
74632;SDS011;63139;52.018;8.552;2022-09-01T13:10:46;3.42;;;1.13;;
74632;SDS011;63139;52.018;8.552;2022-09-01T13:13:14;1.67;;;1.15;;
74632;SDS011;63139;52.018;8.552;2022-09-01T13:15:40;1.33;;;1.08;;
74632;SDS011;63139;52.018;8.552;2022-09-01T13:18:07;1.92;;;1.17;;
74632;SDS011;63139;52.018;8.552;2022-09-01T13:20:32;1.33;;;0.97;;
74632;SDS011;63139;52.018;8.552;2022-09-01T13:22:58;2.93;;;1.00;;
74632;SDS011;63139;52.018;8.552;2022-09-01T13:25:24;2.47;;;1.00;;
74632;SDS011;63139;52.018;8.552;2022-09-01T13:27:50;3.83;;;0.95;;
74632;SDS011;63139;52.018;8.552;2022-09-01T13:30:16;1.47;;;0.80;;
74632;SDS011;63139;52.018;8.552;2022-09-01T13:32:43;3.47;;;1.15;;
74632;SDS011;63139;52.018;8.552;2022-09-01T13:37:35;1.63;;;0.88;;
74632;SDS011;63139;52.018;8.552;2022-09-01T13:40:01;1.37;;;1.00;;
74632;SDS011;63139;52.018;8.552;2022-09-01T13:42:28;1.20;;;0.80;;
74632;SDS011;63139;52.018;8.552;2022-09-01T13:44:53;1.08;;;0.98;;
74632;SDS011;63139;52.018;8.552;2022-09-01T13:47:19;4.10;;;1.07;;
74632;SDS011;63139;52.018;8.552;2022-09-01T13:49:44;1.83;;;0.90;;
74632;SDS011;63139;52.018;8.552;2022-09-01T13:52:10;1.27;;;1.00;;
74632;SDS011;63139;52.018;8.552;2022-09-01T13:54:35;1.10;;;0.97;;
74632;SDS011;63139;52.018;8.552;2022-09-01T13:57:01;3.50;;;1.10;;
74632;SDS011;63139;52.018;8.552;2022-09-01T13:59:28;1.57;;;1.20;;
74632;SDS011;63139;52.018;8.552;2022-09-01T14:01:53;1.35;;;1.02;;
74632;SDS011;63139;52.018;8.552;2022-09-01T14:04:18;1.37;;;0.93;;
74632;SDS011;63139;52.018;8.552;2022-09-01T14:06:44;2.03;;;1.00;;
74632;SDS011;63139;52.018;8.552;2022-09-01T14:09:09;1.10;;;0.83;;
74632;SDS011;63139;52.018;8.552;2022-09-01T14:11:35;1.17;;;0.93;;
74632;SDS011;63139;52.018;8.552;2022-09-01T14:14:01;1.58;;;1.08;;
74632;SDS011;63139;52.018;8.552;2022-09-01T14:16:28;1.10;;;1.00;;
74632;SDS011;63139;52.018;8.552;2022-09-01T14:18:53;2.15;;;0.93;;
74632;SDS011;63139;52.018;8.552;2022-09-01T14:21:19;1.73;;;1.00;;
74632;SDS011;63139;52.018;8.552;2022-09-01T14:23:44;5.87;;;1.17;;
74632;SDS011;63139;52.018;8.552;2022-09-01T14:26:11;2.00;;;0.77;;
74632;SDS011;63139;52.018;8.552;2022-09-01T14:28:38;1.13;;;0.90;;
74632;SDS011;63139;52.018;8.552;2022-09-01T14:31:08;0.80;;;0.80;;
74632;SDS011;63139;52.018;8.552;2022-09-01T14:33:36;0.80;;;0.80;;
74632;SDS011;63139;52.018;8.552;2022-09-01T14:36:02;4.85;;;1.20;;
74632;SDS011;63139;52.018;8.552;2022-09-01T14:38:28;1.50;;;1.10;;
74632;SDS011;63139;52.018;8.552;2022-09-01T14:40:53;1.40;;;1.00;;
74632;SDS011;63139;52.018;8.552;2022-09-01T14:43:19;0.90;;;0.90;;
74632;SDS011;63139;52.018;8.552;2022-09-01T14:45:44;4.43;;;1.00;;
74632;SDS011;63139;52.018;8.552;2022-09-01T14:48:10;1.07;;;1.00;;
74632;SDS011;63139;52.018;8.552;2022-09-01T14:50:39;0.93;;;0.93;;
74632;SDS011;63139;52.018;8.552;2022-09-01T14:53:05;1.38;;;0.93;;
74632;SDS011;63139;52.018;8.552;2022-09-01T14:55:31;0.90;;;0.90;;
74632;SDS011;63139;52.018;8.552;2022-09-01T14:57:56;0.80;;;0.80;;
74632;SDS011;63139;52.018;8.552;2022-09-01T15:00:23;1.08;;;0.93;;
74632;SDS011;63139;52.018;8.552;2022-09-01T15:02:48;2.15;;;1.00;;
74632;SDS011;63139;52.018;8.552;2022-09-01T15:05:14;1.23;;;0.90;;
74632;SDS011;63139;52.018;8.552;2022-09-01T15:07:42;1.07;;;0.87;;
74632;SDS011;63139;52.018;8.552;2022-09-01T15:10:08;1.85;;;0.85;;
74632;SDS011;63139;52.018;8.552;2022-09-01T15:12:34;1.92;;;1.10;;
74632;SDS011;63139;52.018;8.552;2022-09-01T15:15:00;3.67;;;0.93;;
74632;SDS011;63139;52.018;8.552;2022-09-01T15:17:26;2.30;;;1.17;;
74632;SDS011;63139;52.018;8.552;2022-09-01T15:19:52;2.30;;;0.95;;
74632;SDS011;63139;52.018;8.552;2022-09-01T15:22:17;2.10;;;1.00;;
74632;SDS011;63139;52.018;8.552;2022-09-01T15:24:44;1.53;;;0.80;;
74632;SDS011;63139;52.018;8.552;2022-09-01T15:27:10;1.90;;;0.90;;
74632;SDS011;63139;52.018;8.552;2022-09-01T15:29:36;1.23;;;0.83;;
74632;SDS011;63139;52.018;8.552;2022-09-01T15:32:02;0.85;;;0.80;;
74632;SDS011;63139;52.018;8.552;2022-09-01T15:34:27;2.90;;;0.83;;
74632;SDS011;63139;52.018;8.552;2022-09-01T15:36:53;1.33;;;1.00;;
74632;SDS011;63139;52.018;8.552;2022-09-01T15:39:18;1.47;;;0.90;;
74632;SDS011;63139;52.018;8.552;2022-09-01T15:41:45;1.20;;;0.97;;
74632;SDS011;63139;52.018;8.552;2022-09-01T15:44:10;1.45;;;1.00;;
74632;SDS011;63139;52.018;8.552;2022-09-01T15:46:36;2.00;;;0.80;;
74632;SDS011;63139;52.018;8.552;2022-09-01T15:49:03;1.25;;;0.82;;
74632;SDS011;63139;52.018;8.552;2022-09-01T15:51:30;1.27;;;1.02;;
74632;SDS011;63139;52.018;8.552;2022-09-01T15:53:58;1.00;;;0.90;;